Flight Track Log - Related Links

Times and Time Zones

All times are in EDT time to prevent confusion due to time zone crossing. See the SWA183 flight status page for this flight to view local times or setup timezone preferences in your user account.

Time Position Orientation Groundspeed Altitude Reporting Facility
EDT Latitude Longitude Course Direction KTS MPH feet Rate Location/Type
Sat 06:34:46 PM 31.7969 -106.4092 244° Southwest 174 200 5,200  Level Albuquerque Center
Sat 06:35:53 PM 31.7717 -106.4700 244° Southwest 215 247 7,500 2,250 Climbing Albuquerque Center
Sat 06:36:54 PM 31.7844 -106.5497 281° West 272 313 10,000 2,927 Climbing Albuquerque Center
Sat 06:37:56 PM 31.8122 -106.6531 288° West 309 356 13,500 3,659 Climbing Albuquerque Center
Sat 06:38:57 PM 31.8144 -106.7572 271° West 317 365 17,500 3,246 Climbing Albuquerque Center
Sat 06:39:58 PM 31.8131 -106.8761 269° West 357 411 20,100 2,780 Climbing Albuquerque Center
Sat 06:41:00 PM 31.8142 -106.9953 271° West 373 429 23,200 2,683 Climbing Albuquerque Center
Sat 06:42:01 PM 31.8125 -107.1225 269° West 386 444 25,600 2,311 Climbing Albuquerque Center
Sat 06:43:02 PM 31.8108 -107.2575 269° West 404 465 27,900 2,146 Climbing Albuquerque Center
Sat 06:44:04 PM 31.8100 -107.3936 270° West 413 475 30,000 2,341 Climbing Albuquerque Center
Sat 06:45:05 PM 31.8094 -107.5403 270° West 419 482 32,700 2,341 Climbing Albuquerque Center
Sat 06:46:07 PM 31.8256 -107.6725 278° West 413 475 34,800 2,098 Climbing Albuquerque Center
Sat 06:47:08 PM 31.8475 -107.8019 281° West 408 470 37,000 2,213 Climbing Albuquerque Center
Sat 06:48:09 PM 31.8864 -107.9464 288° West 393 452 39,300 1,463 Climbing Albuquerque Center
Sat 06:49:11 PM 31.9208 -108.0611 290° West 385 443 40,000 341 Climbing Albuquerque Center
Sat 06:50:12 PM 31.9547 -108.1811 288° West 381 438 40,000  Level Albuquerque Center
Sat 06:51:14 PM 31.9892 -108.3008 289° West 385 443 40,000  Level Albuquerque Center
Sat 06:52:15 PM 32.0236 -108.4194 289° West 386 444 40,000  Level Albuquerque Center
Sat 06:53:16 PM 32.0581 -108.5344 289° West 382 440 40,000  Level Albuquerque Center
Sat 06:54:18 PM 32.0925 -108.6508 289° West 379 436 40,000  Level Albuquerque Center
Sat 06:55:19 PM 32.1269 -108.7689 289° West 382 440 40,000  Level Albuquerque Center
Sat 06:56:20 PM 32.1669 -108.9100 289° West 380 437 40,000  Level Albuquerque Center
Sat 06:57:22 PM 32.2011 -109.0275 289° West 381 438 40,000  Level Albuquerque Center
Sat 06:58:23 PM 32.2344 -109.1442 289° West 379 436 40,000  Level Albuquerque Center
Sat 06:59:24 PM 32.2686 -109.2625 289° West 380 437 40,000  Level Albuquerque Center
Sat 07:00:26 PM 32.3078 -109.3758 292° West 378 435 40,000  Level Albuquerque Center
Sat 07:01:27 PM 32.3472 -109.4900 292° West 378 435 40,000  Level Albuquerque Center
Sat 07:02:28 PM 32.3867 -109.6036 292° West 376 433 40,000  Level Albuquerque Center
Sat 07:03:29 PM 32.4278 -109.7208 293° West 384 442 40,000  Level Albuquerque Center
Sat 07:04:31 PM 32.4781 -109.8617 293° West 387 445 40,000  Level Albuquerque Center
Sat 07:05:32 PM 32.5181 -109.9789 292° West 387 445 40,000  Level Albuquerque Center
Sat 07:06:33 PM 32.5583 -110.0956 292° West 386 444 40,000  Level Albuquerque Center
Sat 07:07:34 PM 32.5981 -110.2133 292° West 386 444 40,000  Level Albuquerque Center
Sat 07:08:36 PM 32.6381 -110.3297 292° West 385 443 40,000  Level Albuquerque Center
Sat 07:09:37 PM 32.6772 -110.4456 292° West 383 441 40,000  Level Albuquerque Center
Sat 07:10:38 PM 32.7169 -110.5608 292° West 381 438 40,000  Level Albuquerque Center
Sat 07:11:40 PM 32.7572 -110.6803 292° West 380 437 40,000  Level Albuquerque Center
Sat 07:12:41 PM 32.7967 -110.7978 292° West 382 440 40,000 246 Level Albuquerque Center
Sat 07:13:42 PM 32.8433 -110.9375 292° West 381 438 40,500  Climbing Albuquerque Center
Sat 07:14:43 PM 32.8839 -111.0547 292° West 382 440 40,000 -244 Descending Albuquerque Center
Sat 07:15:45 PM 32.9217 -111.1722 291° West 381 438 40,000  Level Albuquerque Center
Sat 07:16:46 PM 32.9614 -111.2878 292° West 379 436 40,000  Level Albuquerque Center
Sat 07:17:47 PM 32.9997 -111.4072 291° West 383 441 40,000  Level Albuquerque Center
Sat 07:18:48 PM 33.0389 -111.5258 292° West 385 443 40,000  Level Albuquerque Center
Sat 07:19:50 PM 33.0775 -111.6447 291° West 385 443 40,000  Level Albuquerque Center
Sat 07:20:51 PM 33.1153 -111.7631 291° West 383 441 40,000  Level Albuquerque Center
Sat 07:21:52 PM 33.1547 -111.8828 292° West 385 443 40,000  Level Albuquerque Center
Sat 07:22:53 PM 33.1939 -112.0042 291° West 389 448 40,000  Level Albuquerque Center
Sat 07:23:55 PM 33.2317 -112.1222 291° West 385 443 40,000  Level Albuquerque Center
Sat 07:24:56 PM 33.2764 -112.2650 291° West 382 440 40,000  Level Albuquerque Center
Sat 07:25:57 PM 33.3144 -112.3853 291° West 387 445 40,000  Level Albuquerque Center
Sat 07:26:58 PM 33.3533 -112.5061 291° West 388 447 40,000  Level Albuquerque Center
Sat 07:27:59 PM 33.3867 -112.6119 291° West 391 450 40,000  Level Albuquerque Center
Sat 07:29:01 PM 33.4319 -112.7556 291° West 388 447 40,000  Level Albuquerque Center
Sat 07:30:02 PM 33.4714 -112.8758 291° West 389 448 40,000  Level Albuquerque Center
Sat 07:31:03 PM 33.5144 -112.9956 293° West 392 451 40,000  Level Albuquerque Center
Sat 07:32:04 PM 33.5561 -113.1131 293° West 388 447 40,000  Level Albuquerque Center
Sat 07:33:05 PM 33.5989 -113.2319 293° West 389 448 40,000  Level Albuquerque Center
Sat 07:34:06 PM 33.6400 -113.3475 293° West 389 448 40,000  Level Albuquerque Center
Sat 07:35:08 PM 33.6822 -113.4672 293° West 389 448 40,000  Level Albuquerque Center
Sat 07:36:09 PM 33.7244 -113.5875 293° West 391 450 40,000  Level Albuquerque Center
Sat 07:37:10 PM 33.7739 -113.7311 293° West 388 447 40,000  Level Albuquerque Center
Sat 07:38:11 PM 33.8156 -113.8481 293° West 384 442 40,000  Level Albuquerque Center
Sat 07:39:12 PM 33.8578 -113.9689 293° West 389 448 40,000  Level Albuquerque Center
Sat 07:40:14 PM 33.8997 -114.0900 293° West 390 449 40,000  Level Albuquerque Center
Sat 07:41:15 PM 33.9408 -114.2097 293° West 389 448 40,000  Level Albuquerque Center
Sat 07:42:16 PM 33.9822 -114.3319 292° West 388 447 40,000  Level Albuquerque Center
Sat 07:43:17 PM 34.0231 -114.4525 292° West 389 448 40,000  Level Albuquerque Center
Sat 07:43:45 PM 34.0333 -114.4800 294° West 389 448 40,000  Level Los Angeles Center
Sat 07:44:47 PM 34.0911 -114.6492 292° West 390 449 40,000  Level Los Angeles Center
Sat 07:45:49 PM 34.1033 -114.7744 277° West 384 442 40,000  Level Los Angeles Center
Sat 07:46:51 PM 34.1056 -114.9025 271° West 382 440 40,000  Level Los Angeles Center
Sat 07:47:53 PM 34.1069 -115.0322 271° West 387 445 40,000  Level Los Angeles Center
Sat 07:48:55 PM 34.1078 -115.1614 270° West 387 445 40,000  Level Los Angeles Center
Sat 07:49:57 PM 34.1097 -115.2906 271° West 387 445 40,000  Level Los Angeles Center
Sat 07:51:11 PM 34.1106 -115.4728 270° West 387 445 40,000 -221 Level Los Angeles Center
Sat 07:52:13 PM 34.1111 -115.6017 270° West 388 447 39,500 -726 Descending Los Angeles Center
Sat 07:53:15 PM 34.1125 -115.7294 271° West 383 441 38,500 -927 Descending Los Angeles Center
Sat 07:54:16 PM 34.0997 -115.8531 263° West 374 430 37,600 -927 Descending Los Angeles Center
Sat 07:55:18 PM 34.0817 -115.9769 260° West 378 435 36,600 -919 Descending Los Angeles Center
Sat 07:56:20 PM 34.0667 -116.0794 260° West 386 444 35,700 -1,935 Descending Los Angeles Center
Sat 07:57:22 PM 34.0397 -116.2533 259° West 379 436 32,600 -2,516 Descending Los Angeles Center
Sat 07:58:24 PM 34.0225 -116.3708 260° West 360 414 30,500 -2,000 Descending Los Angeles Center
Sat 07:59:25 PM 34.0050 -116.4842 259° West 348 400 28,500 -1,822 Descending Los Angeles Center
Sat 08:00:39 PM 33.9972 -116.5956 265° West 338 389 26,400 -1,941 Descending Los Angeles Center
Sat 08:01:41 PM 33.9858 -116.7228 264° West 321 369 24,100 -2,032 Descending Los Angeles Center
Sat 08:02:43 PM 33.9775 -116.8297 265° West 322 371 22,200 -2,059 Descending Los Angeles Center
Sat 08:03:23 PM 33.9667 -116.9167 261° West 315 362 20,600 -2,100 Descending Southern California TRACON
Sat 08:04:23 PM 33.9667 -117.0333 270° West 306 352 18,700 -1,800 Descending Southern California TRACON
Sat 08:05:23 PM 33.9500 -117.1167 256° West 306 352 17,000 -810 Descending Southern California TRACON
Sat 08:06:29 PM 33.9500 -117.2333 270° West 310 357 17,000 -650 Level Southern California TRACON
Sat 08:07:23 PM 33.9333 -117.3333 259° West 304 350 15,700 -1,700 Descending Southern California TRACON
Sat 08:08:29 PM 33.9500 -117.4333 281° West 299 344 13,600 -1,810 Descending Southern California TRACON
Sat 08:09:29 PM 33.9833 -117.5333 292° West 288 331 11,900 -1,550 Descending Southern California TRACON
Sat 08:10:29 PM 34.0167 -117.6167 296° West 331 381 10,500 -1,000 Descending Southern California TRACON
Sat 08:11:29 PM 34.0167 -117.7000 270° West 253 291 9,900 -900 Descending Southern California TRACON
Sat 08:12:29 PM 34.0167 -117.7833 270° West 246 283 8,700 -1,158 Descending Southern California TRACON
Sat 08:13:23 PM 34.0000 -117.8667 256° West 247 284 7,700 -1,050 Descending Southern California TRACON
Sat 08:14:29 PM 34.0000 -117.9500 270° West 253 291 6,600 -1,048 Descending Southern California TRACON
Sat 08:15:29 PM 33.9833 -118.0500 259° West 261 300 5,500 -1,041 Descending Southern California TRACON
Sat 08:16:30 PM 33.9833 -118.1167 270° West 244 281 4,500 -909 Descending Southern California TRACON
Sat 08:17:08 PM 33.9736 -118.1700 258° West 248 285 4,000 -1,030 Descending Los Angeles Center
Sat 08:18:09 PM 33.9669 -118.2383 263° West 219 252 2,800 -1,024 Descending Los Angeles Center
Sat 08:19:11 PM 33.9617 -118.2942 264° West 192 221 1,900 -774 Descending Los Angeles Center
Sat 08:20:13 PM 33.9561 -118.3425 262° West 166 191 1,200 -677 Descending Los Angeles Center
Sat 08:21:15 PM 33.9525 -118.3883 265° West 150 173 500 -677 Descending Los Angeles Center
Sat 08:23:00 PM 33.9333 -118.4000 270° West  Level FlightAware Approximate

Login

Don't have an account? Register now (free) for customized features, flight alerts, and more!